sensor_id;sensor_type;location;lat;lon;timestamp;pressure;altitude;pressure_sealevel;temperature;humidity
63700;BME280;49845;47.130;142.766;2024-02-15T00:00:56;100632.88;;;-8.25;92.93
63700;BME280;49845;47.130;142.766;2024-02-15T00:03:28;100640.50;;;-8.11;91.24
63700;BME280;49845;47.130;142.766;2024-02-15T00:05:59;100645.38;;;-8.14;90.79
63700;BME280;49845;47.130;142.766;2024-02-15T00:08:30;100636.59;;;-7.93;91.86
63700;BME280;49845;47.130;142.766;2024-02-15T00:11:05;100644.59;;;-7.73;90.30
63700;BME280;49845;47.130;142.766;2024-02-15T00:13:37;100645.06;;;-7.66;89.66
63700;BME280;49845;47.130;142.766;2024-02-15T00:16:08;100629.06;;;-7.65;88.49
63700;BME280;49845;47.130;142.766;2024-02-15T00:18:38;100631.31;;;-7.56;88.32
63700;BME280;49845;47.130;142.766;2024-02-15T00:21:09;100635.06;;;-7.49;87.91
63700;BME280;49845;47.130;142.766;2024-02-15T00:23:41;100627.78;;;-7.71;88.07
63700;BME280;49845;47.130;142.766;2024-02-15T00:26:14;100624.31;;;-7.73;88.20
63700;BME280;49845;47.130;142.766;2024-02-15T00:28:44;100626.06;;;-7.72;88.17
63700;BME280;49845;47.130;142.766;2024-02-15T00:31:15;100619.41;;;-7.70;88.80
63700;BME280;49845;47.130;142.766;2024-02-15T00:33:46;100618.47;;;-7.86;88.51
63700;BME280;49845;47.130;142.766;2024-02-15T00:36:18;100625.69;;;-7.78;88.80
63700;BME280;49845;47.130;142.766;2024-02-15T00:38:48;100626.06;;;-7.72;88.31
63700;BME280;49845;47.130;142.766;2024-02-15T00:41:21;100559.28;;;-8.26;87.76
63700;BME280;49845;47.130;142.766;2024-02-15T00:43:51;100625.88;;;-8.02;88.20
63700;BME280;49845;47.130;142.766;2024-02-15T00:46:22;100625.31;;;-7.98;88.07
63700;BME280;49845;47.130;142.766;2024-02-15T00:48:56;100629.97;;;-7.91;88.75
63700;BME280;49845;47.130;142.766;2024-02-15T00:51:26;100626.66;;;-7.90;88.53
63700;BME280;49845;47.130;142.766;2024-02-15T00:53:57;100632.38;;;-7.79;87.95
63700;BME280;49845;47.130;142.766;2024-02-15T00:56:29;100596.78;;;-7.81;88.25
63700;BME280;49845;47.130;142.766;2024-02-15T00:59:01;100631.25;;;-7.43;86.93
63700;BME280;49845;47.130;142.766;2024-02-15T01:01:31;100634.31;;;-7.20;87.07
63700;BME280;49845;47.130;142.766;2024-02-15T01:04:02;100632.09;;;-7.01;85.53
63700;BME280;49845;47.130;142.766;2024-02-15T01:06:33;100622.31;;;-6.95;85.66
63700;BME280;49845;47.130;142.766;2024-02-15T01:09:04;100630.06;;;-6.78;85.26
63700;BME280;49845;47.130;142.766;2024-02-15T01:11:38;100632.34;;;-6.68;84.58
63700;BME280;49845;47.130;142.766;2024-02-15T01:14:09;100623.41;;;-6.76;83.45
63700;BME280;49845;47.130;142.766;2024-02-15T01:16:39;100631.28;;;-6.57;83.14
63700;BME280;49845;47.130;142.766;2024-02-15T01:19:10;100632.69;;;-6.32;83.50
63700;BME280;49845;47.130;142.766;2024-02-15T01:21:40;100621.81;;;-6.30;82.47
63700;BME280;49845;47.130;142.766;2024-02-15T01:24:12;100626.91;;;-6.30;82.19
63700;BME280;49845;47.130;142.766;2024-02-15T01:26:44;100619.00;;;-6.04;82.38
63700;BME280;49845;47.130;142.766;2024-02-15T01:29:16;100623.59;;;-6.14;81.01
63700;BME280;49845;47.130;142.766;2024-02-15T01:31:46;100619.78;;;-6.05;81.26
63700;BME280;49845;47.130;142.766;2024-02-15T01:34:17;100615.03;;;-5.68;80.34
63700;BME280;49845;47.130;142.766;2024-02-15T01:36:48;100588.69;;;-5.69;80.35
63700;BME280;49845;47.130;142.766;2024-02-15T01:39:19;100606.06;;;-5.45;79.54
63700;BME280;49845;47.130;142.766;2024-02-15T01:41:51;100601.69;;;-5.64;78.31
63700;BME280;49845;47.130;142.766;2024-02-15T01:44:24;100612.22;;;-5.73;79.59
63700;BME280;49845;47.130;142.766;2024-02-15T01:46:55;100612.88;;;-5.60;78.92
63700;BME280;49845;47.130;142.766;2024-02-15T01:49:27;100611.78;;;-5.49;78.56
63700;BME280;49845;47.130;142.766;2024-02-15T01:51:59;100605.47;;;-5.08;78.42
63700;BME280;49845;47.130;142.766;2024-02-15T01:54:31;100603.88;;;-5.06;77.18
63700;BME280;49845;47.130;142.766;2024-02-15T01:57:04;100590.00;;;-5.44;76.96
63700;BME280;49845;47.130;142.766;2024-02-15T01:59:35;100597.47;;;-5.64;77.96
63700;BME280;49845;47.130;142.766;2024-02-15T02:02:08;100602.25;;;-5.53;78.42
63700;BME280;49845;47.130;142.766;2024-02-15T02:04:41;100591.13;;;-5.23;78.32
63700;BME280;49845;47.130;142.766;2024-02-15T02:07:12;100580.13;;;-5.05;77.37
63700;BME280;49845;47.130;142.766;2024-02-15T02:09:43;100577.41;;;-4.92;76.62
63700;BME280;49845;47.130;142.766;2024-02-15T02:12:15;100581.38;;;-4.81;76.34
63700;BME280;49845;47.130;142.766;2024-02-15T02:14:46;100578.34;;;-4.73;75.89
63700;BME280;49845;47.130;142.766;2024-02-15T02:17:17;100574.00;;;-4.58;76.13
63700;BME280;49845;47.130;142.766;2024-02-15T02:19:48;100565.53;;;-4.57;76.47
63700;BME280;49845;47.130;142.766;2024-02-15T02:22:19;100555.50;;;-4.54;76.19
63700;BME280;49845;47.130;142.766;2024-02-15T02:25:05;100557.47;;;-4.83;76.41
63700;BME280;49845;47.130;142.766;2024-02-15T02:27:37;100550.84;;;-5.13;77.63
63700;BME280;49845;47.130;142.766;2024-02-15T02:30:13;100542.88;;;-5.36;78.30
63700;BME280;49845;47.130;142.766;2024-02-15T02:32:47;100539.84;;;-5.45;79.61
63700;BME280;49845;47.130;142.766;2024-02-15T02:35:18;100535.22;;;-5.52;79.71
63700;BME280;49845;47.130;142.766;2024-02-15T02:37:49;100530.16;;;-5.52;79.83
63700;BME280;49845;47.130;142.766;2024-02-15T02:40:23;100526.63;;;-5.54;79.92
63700;BME280;49845;47.130;142.766;2024-02-15T02:42:54;100522.97;;;-5.59;80.38
63700;BME280;49845;47.130;142.766;2024-02-15T02:45:25;100523.31;;;-5.53;80.89
63700;BME280;49845;47.130;142.766;2024-02-15T02:47:55;100524.56;;;-5.45;81.26
63700;BME280;49845;47.130;142.766;2024-02-15T02:50:26;100539.56;;;-5.51;80.50
63700;BME280;49845;47.130;142.766;2024-02-15T02:52:56;100519.72;;;-5.73;81.36
63700;BME280;49845;47.130;142.766;2024-02-15T02:55:29;100516.00;;;-5.64;82.20
63700;BME280;49845;47.130;142.766;2024-02-15T02:57:59;100512.00;;;-5.42;81.66
63700;BME280;49845;47.130;142.766;2024-02-15T03:00:30;100501.91;;;-5.24;81.76
63700;BME280;49845;47.130;142.766;2024-02-15T03:03:01;100504.03;;;-5.32;81.25
63700;BME280;49845;47.130;142.766;2024-02-15T03:05:31;100505.94;;;-5.28;80.85
63700;BME280;49845;47.130;142.766;2024-02-15T03:08:02;100499.88;;;-5.13;81.47
63700;BME280;49845;47.130;142.766;2024-02-15T03:10:34;100501.00;;;-5.25;79.93
63700;BME280;49845;47.130;142.766;2024-02-15T03:13:06;100505.78;;;-5.31;81.34
63700;BME280;49845;47.130;142.766;2024-02-15T03:15:37;100499.75;;;-5.49;81.01
63700;BME280;49845;47.130;142.766;2024-02-15T03:18:10;100503.91;;;-5.51;82.28
63700;BME280;49845;47.130;142.766;2024-02-15T03:20:40;100493.88;;;-5.48;82.45
63700;BME280;49845;47.130;142.766;2024-02-15T03:23:12;100494.97;;;-5.43;82.50
63700;BME280;49845;47.130;142.766;2024-02-15T03:25:44;100491.81;;;-5.39;82.10
63700;BME280;49845;47.130;142.766;2024-02-15T03:28:14;100498.56;;;-5.56;81.73
63700;BME280;49845;47.130;142.766;2024-02-15T03:30:45;100484.00;;;-5.58;81.99
63700;BME280;49845;47.130;142.766;2024-02-15T03:33:15;100481.31;;;-5.61;82.46
63700;BME280;49845;47.130;142.766;2024-02-15T03:35:46;100473.09;;;-5.72;82.78
63700;BME280;49845;47.130;142.766;2024-02-15T03:38:17;100482.56;;;-5.86;83.00
63700;BME280;49845;47.130;142.766;2024-02-15T03:40:49;100474.84;;;-5.88;83.28
63700;BME280;49845;47.130;142.766;2024-02-15T03:43:19;100475.72;;;-5.87;83.79
63700;BME280;49845;47.130;142.766;2024-02-15T03:45:49;100459.19;;;-6.12;84.10
63700;BME280;49845;47.130;142.766;2024-02-15T03:48:20;100470.31;;;-6.26;84.65
63700;BME280;49845;47.130;142.766;2024-02-15T03:50:50;100467.53;;;-6.45;85.54
63700;BME280;49845;47.130;142.766;2024-02-15T03:53:21;100474.66;;;-6.55;86.52
63700;BME280;49845;47.130;142.766;2024-02-15T03:55:53;100461.78;;;-6.58;87.39
63700;BME280;49845;47.130;142.766;2024-02-15T03:58:23;100463.19;;;-6.63;87.53
63700;BME280;49845;47.130;142.766;2024-02-15T04:00:54;100453.63;;;-6.67;88.02
63700;BME280;49845;47.130;142.766;2024-02-15T04:03:25;100454.59;;;-6.65;88.20
63700;BME280;49845;47.130;142.766;2024-02-15T04:05:55;100456.38;;;-6.64;88.70
63700;BME280;49845;47.130;142.766;2024-02-15T04:08:26;100463.72;;;-6.54;88.21
63700;BME280;49845;47.130;142.766;2024-02-15T04:10:58;100452.03;;;-6.50;88.05
63700;BME280;49845;47.130;142.766;2024-02-15T04:13:28;100452.13;;;-6.48;87.03
63700;BME280;49845;47.130;142.766;2024-02-15T04:15:59;100449.50;;;-6.50;87.30
63700;BME280;49845;47.130;142.766;2024-02-15T04:18:29;100443.19;;;-6.57;87.88
63700;BME280;49845;47.130;142.766;2024-02-15T04:21:01;100454.03;;;-6.44;87.84
63700;BME280;49845;47.130;142.766;2024-02-15T04:23:31;100450.53;;;-6.46;87.15
63700;BME280;49845;47.130;142.766;2024-02-15T04:26:04;100450.66;;;-6.28;87.50
63700;BME280;49845;47.130;142.766;2024-02-15T04:28:34;100462.38;;;-6.16;86.85
63700;BME280;49845;47.130;142.766;2024-02-15T04:31:04;100463.63;;;-6.24;87.01
63700;BME280;49845;47.130;142.766;2024-02-15T04:33:36;100452.81;;;-6.20;86.72
63700;BME280;49845;47.130;142.766;2024-02-15T04:36:08;100438.81;;;-6.12;86.49
63700;BME280;49845;47.130;142.766;2024-02-15T04:38:40;100448.53;;;-5.88;86.68
63700;BME280;49845;47.130;142.766;2024-02-15T04:41:12;100440.44;;;-5.81;86.21
63700;BME280;49845;47.130;142.766;2024-02-15T04:43:43;100453.69;;;-5.70;86.00
63700;BME280;49845;47.130;142.766;2024-02-15T04:46:14;100442.41;;;-5.59;86.12
63700;BME280;49845;47.130;142.766;2024-02-15T04:48:45;100451.38;;;-5.66;85.52
63700;BME280;49845;47.130;142.766;2024-02-15T04:51:16;100429.28;;;-5.83;85.58
63700;BME280;49845;47.130;142.766;2024-02-15T04:53:48;100448.84;;;-5.66;85.72
63700;BME280;49845;47.130;142.766;2024-02-15T04:56:20;100443.66;;;-5.67;86.00
63700;BME280;49845;47.130;142.766;2024-02-15T04:58:51;100450.91;;;-5.75;86.24
63700;BME280;49845;47.130;142.766;2024-02-15T05:01:22;100447.81;;;-5.86;86.75
63700;BME280;49845;47.130;142.766;2024-02-15T05:03:52;100442.28;;;-5.95;86.97
63700;BME280;49845;47.130;142.766;2024-02-15T05:06:23;100444.75;;;-5.96;87.41
63700;BME280;49845;47.130;142.766;2024-02-15T05:08:58;100459.53;;;-6.05;86.71
63700;BME280;49845;47.130;142.766;2024-02-15T05:11:30;100460.03;;;-5.96;87.00
63700;BME280;49845;47.130;142.766;2024-02-15T05:14:03;100457.75;;;-6.07;86.50
63700;BME280;49845;47.130;142.766;2024-02-15T05:16:34;100431.81;;;-6.32;86.97
63700;BME280;49845;47.130;142.766;2024-02-15T05:19:10;100466.94;;;-6.41;88.32
63700;BME280;49845;47.130;142.766;2024-02-15T05:21:41;100451.78;;;-6.55;88.90
63700;BME280;49845;47.130;142.766;2024-02-15T05:24:13;100338.91;;;-7.35;88.69
63700;BME280;49845;47.130;142.766;2024-02-15T05:26:46;100471.25;;;-6.70;90.17
63700;BME280;49845;47.130;142.766;2024-02-15T05:29:18;100466.56;;;-6.79;90.10
63700;BME280;49845;47.130;142.766;2024-02-15T05:31:51;100466.19;;;-6.85;90.76
63700;BME280;49845;47.130;142.766;2024-02-15T05:34:23;100460.09;;;-6.88;91.63
63700;BME280;49845;47.130;142.766;2024-02-15T05:36:54;100470.94;;;-6.91;91.57
63700;BME280;49845;47.130;142.766;2024-02-15T05:39:25;100460.09;;;-7.03;91.98
63700;BME280;49845;47.130;142.766;2024-02-15T05:41:57;100460.09;;;-6.88;92.26
63700;BME280;49845;47.130;142.766;2024-02-15T05:44:29;100456.41;;;-6.93;91.86
63700;BME280;49845;47.130;142.766;2024-02-15T05:47:00;100467.78;;;-6.87;92.91
63700;BME280;49845;47.130;142.766;2024-02-15T05:49:30;100466.56;;;-6.93;92.36
63700;BME280;49845;47.130;142.766;2024-02-15T05:52:01;100461.81;;;-7.02;93.21
63700;BME280;49845;47.130;142.766;2024-02-15T05:54:32;100471.13;;;-7.03;93.53
63700;BME280;49845;47.130;142.766;2024-02-15T05:57:04;100486.34;;;-7.03;93.21
63700;BME280;49845;47.130;142.766;2024-02-15T05:59:35;100479.16;;;-7.10;93.38
63700;BME280;49845;47.130;142.766;2024-02-15T06:02:05;100479.69;;;-7.16;93.79
63700;BME280;49845;47.130;142.766;2024-02-15T06:04:36;100473.22;;;-7.25;93.73
63700;BME280;49845;47.130;142.766;2024-02-15T06:07:20;100471.81;;;-7.20;94.19
63700;BME280;49845;47.130;142.766;2024-02-15T06:09:50;100481.72;;;-7.10;94.47
63700;BME280;49845;47.130;142.766;2024-02-15T06:12:22;100480.56;;;-7.15;93.99
63700;BME280;49845;47.130;142.766;2024-02-15T06:14:53;100490.47;;;-7.20;94.22
63700;BME280;49845;47.130;142.766;2024-02-15T06:17:23;100488.28;;;-7.28;94.41
63700;BME280;49845;47.130;142.766;2024-02-15T06:19:54;100474.78;;;-7.27;94.61
63700;BME280;49845;47.130;142.766;2024-02-15T06:22:24;100474.78;;;-7.27;94.46
63700;BME280;49845;47.130;142.766;2024-02-15T06:24:55;100493.34;;;-7.28;94.15
63700;BME280;49845;47.130;142.766;2024-02-15T06:27:27;100486.59;;;-7.28;94.29
63700;BME280;49845;47.130;142.766;2024-02-15T06:29:59;100485.34;;;-7.34;93.83
63700;BME280;49845;47.130;142.766;2024-02-15T06:32:46;100476.84;;;-7.50;93.92
63700;BME280;49845;47.130;142.766;2024-02-15T06:35:34;100483.31;;;-7.55;94.61
63700;BME280;49845;47.130;142.766;2024-02-15T06:38:21;100491.50;;;-7.59;94.63
63700;BME280;49845;47.130;142.766;2024-02-15T06:41:10;100483.66;;;-7.64;95.06
63700;BME280;49845;47.130;142.766;2024-02-15T06:43:42;100477.16;;;-7.73;95.46
63700;BME280;49845;47.130;142.766;2024-02-15T06:46:12;100488.88;;;-7.75;95.45
63700;BME280;49845;47.130;142.766;2024-02-15T06:48:43;100484.78;;;-7.73;95.67
63700;BME280;49845;47.130;142.766;2024-02-15T06:51:13;100500.75;;;-7.74;95.39
63700;BME280;49845;47.130;142.766;2024-02-15T06:53:44;100496.31;;;-7.78;95.23
63700;BME280;49845;47.130;142.766;2024-02-15T06:56:15;100451.72;;;-8.16;95.31
63700;BME280;49845;47.130;142.766;2024-02-15T06:58:48;100487.72;;;-7.94;95.55
63700;BME280;49845;47.130;142.766;2024-02-15T07:01:18;100489.50;;;-7.93;95.48
63700;BME280;49845;47.130;142.766;2024-02-15T07:03:48;100491.88;;;-7.96;95.56
63700;BME280;49845;47.130;142.766;2024-02-15T07:06:22;100485.88;;;-7.96;95.68
63700;BME280;49845;47.130;142.766;2024-02-15T07:08:52;100488.94;;;-8.02;95.26
63700;BME280;49845;47.130;142.766;2024-02-15T07:11:25;100491.69;;;-8.12;95.26
63700;BME280;49845;47.130;142.766;2024-02-15T07:13:58;100481.94;;;-8.06;95.37
63700;BME280;49845;47.130;142.766;2024-02-15T07:16:28;100487.00;;;-8.06;95.18
63700;BME280;49845;47.130;142.766;2024-02-15T07:18:59;100488.75;;;-8.05;94.95
63700;BME280;49845;47.130;142.766;2024-02-15T07:21:29;100496.19;;;-8.08;94.66
63700;BME280;49845;47.130;142.766;2024-02-15T07:24:00;100479.81;;;-8.13;94.48
63700;BME280;49845;47.130;142.766;2024-02-15T07:26:30;100493.88;;;-8.18;94.59
63700;BME280;49845;47.130;142.766;2024-02-15T07:29:05;100497.91;;;-8.07;94.75
63700;BME280;49845;47.130;142.766;2024-02-15T07:31:36;100492.44;;;-8.00;94.99
63700;BME280;49845;47.130;142.766;2024-02-15T07:34:07;100507.47;;;-8.03;94.27
63700;BME280;49845;47.130;142.766;2024-02-15T07:36:37;100507.47;;;-8.03;94.00
63700;BME280;49845;47.130;142.766;2024-02-15T07:39:10;100521.75;;;-8.18;93.43
63700;BME280;49845;47.130;142.766;2024-02-15T07:41:52;100523.13;;;-8.23;93.36
63700;BME280;49845;47.130;142.766;2024-02-15T07:44:24;100534.13;;;-8.23;93.57
63700;BME280;49845;47.130;142.766;2024-02-15T07:46:58;100535.03;;;-8.36;92.96
63700;BME280;49845;47.130;142.766;2024-02-15T07:49:30;100541.03;;;-8.34;93.61
63700;BME280;49845;47.130;142.766;2024-02-15T07:52:02;100548.50;;;-8.50;92.81
63700;BME280;49845;47.130;142.766;2024-02-15T07:54:32;100540.28;;;-8.59;93.10
63700;BME280;49845;47.130;142.766;2024-02-15T07:57:03;100539.13;;;-8.51;93.67
63700;BME280;49845;47.130;142.766;2024-02-15T07:59:35;100554.31;;;-8.51;93.35
63700;BME280;49845;47.130;142.766;2024-02-15T08:02:07;100554.72;;;-8.58;93.50
63700;BME280;49845;47.130;142.766;2024-02-15T08:04:38;100562.91;;;-8.62;93.48
63700;BME280;49845;47.130;142.766;2024-02-15T08:07:09;100568.91;;;-8.74;94.00
63700;BME280;49845;47.130;142.766;2024-02-15T08:09:40;100568.22;;;-8.71;94.18
63700;BME280;49845;47.130;142.766;2024-02-15T08:12:12;100572.03;;;-8.78;94.10
63700;BME280;49845;47.130;142.766;2024-02-15T08:14:44;100571.63;;;-8.84;93.86
63700;BME280;49845;47.130;142.766;2024-02-15T08:17:14;100564.00;;;-8.97;93.81
63700;BME280;49845;47.130;142.766;2024-02-15T08:19:45;100567.69;;;-9.05;94.06
63700;BME280;49845;47.130;142.766;2024-02-15T08:22:16;100571.09;;;-9.05;94.47
63700;BME280;49845;47.130;142.766;2024-02-15T08:24:52;100577.03;;;-9.04;94.62
63700;BME280;49845;47.130;142.766;2024-02-15T08:27:24;100575.00;;;-8.97;94.84
63700;BME280;49845;47.130;142.766;2024-02-15T08:29:56;100568.69;;;-9.03;94.45
63700;BME280;49845;47.130;142.766;2024-02-15T08:32:26;100559.47;;;-9.15;94.44
63700;BME280;49845;47.130;142.766;2024-02-15T08:34:56;100564.59;;;-9.26;94.26
63700;BME280;49845;47.130;142.766;2024-02-15T08:37:27;100561.34;;;-9.37;94.35
63700;BME280;49845;47.130;142.766;2024-02-15T08:39:58;100510.03;;;-9.73;94.63
63700;BME280;49845;47.130;142.766;2024-02-15T08:42:28;100560.31;;;-9.52;94.81
63700;BME280;49845;47.130;142.766;2024-02-15T08:45:00;100571.56;;;-9.61;95.14
63700;BME280;49845;47.130;142.766;2024-02-15T08:47:31;100577.72;;;-9.69;95.57
63700;BME280;49845;47.130;142.766;2024-02-15T08:50:01;100579.06;;;-9.74;95.74
63700;BME280;49845;47.130;142.766;2024-02-15T08:52:32;100564.13;;;-9.83;96.01
63700;BME280;49845;47.130;142.766;2024-02-15T08:55:03;100568.66;;;-9.90;96.34
63700;BME280;49845;47.130;142.766;2024-02-15T08:57:35;100581.50;;;-9.87;96.90
63700;BME280;49845;47.130;142.766;2024-02-15T09:00:08;100586.13;;;-9.93;96.85
63700;BME280;49845;47.130;142.766;2024-02-15T09:02:42;100570.94;;;-9.93;96.72
63700;BME280;49845;47.130;142.766;2024-02-15T09:05:13;100569.06;;;-9.84;96.81
63700;BME280;49845;47.130;142.766;2024-02-15T09:07:45;100587.88;;;-9.81;96.67
63700;BME280;49845;47.130;142.766;2024-02-15T09:10:16;100594.03;;;-9.77;96.91
63700;BME280;49845;47.130;142.766;2024-02-15T09:12:47;100583.75;;;-9.67;96.75
63700;BME280;49845;47.130;142.766;2024-02-15T09:15:19;100575.03;;;-9.59;96.58
63700;BME280;49845;47.130;142.766;2024-02-15T09:17:51;100568.25;;;-9.60;95.99
63700;BME280;49845;47.130;142.766;2024-02-15T09:20:23;100575.50;;;-9.64;95.44
63700;BME280;49845;47.130;142.766;2024-02-15T09:22:56;100581.75;;;-9.59;95.07
63700;BME280;49845;47.130;142.766;2024-02-15T09:25:27;100582.88;;;-9.56;95.03
63700;BME280;49845;47.130;142.766;2024-02-15T09:27:59;100581.97;;;-9.56;94.54
63700;BME280;49845;47.130;142.766;2024-02-15T09:30:31;100585.59;;;-9.52;93.80
63700;BME280;49845;47.130;142.766;2024-02-15T09:33:04;100588.69;;;-9.57;92.74
63700;BME280;49845;47.130;142.766;2024-02-15T09:35:35;100587.56;;;-9.48;92.45
63700;BME280;49845;47.130;142.766;2024-02-15T09:38:07;100593.50;;;-9.48;92.00
63700;BME280;49845;47.130;142.766;2024-02-15T09:40:38;100592.59;;;-9.48;91.30
63700;BME280;49845;47.130;142.766;2024-02-15T09:43:09;100594.78;;;-9.41;91.24
63700;BME280;49845;47.130;142.766;2024-02-15T09:45:43;100580.50;;;-9.41;91.01
63700;BME280;49845;47.130;142.766;2024-02-15T09:48:14;100601.63;;;-9.40;90.18
63700;BME280;49845;47.130;142.766;2024-02-15T09:50:48;100593.44;;;-9.36;89.94
63700;BME280;49845;47.130;142.766;2024-02-15T09:53:21;100590.50;;;-9.42;88.82
63700;BME280;49845;47.130;142.766;2024-02-15T09:55:54;100587.34;;;-9.51;88.25
63700;BME280;49845;47.130;142.766;2024-02-15T09:58:32;100590.91;;;-9.61;87.58
63700;BME280;49845;47.130;142.766;2024-02-15T10:01:05;100592.03;;;-9.69;87.23
63700;BME280;49845;47.130;142.766;2024-02-15T10:03:38;100583.00;;;-9.66;87.57
63700;BME280;49845;47.130;142.766;2024-02-15T10:06:09;100584.97;;;-9.73;87.27
63700;BME280;49845;47.130;142.766;2024-02-15T10:08:41;100587.44;;;-9.75;87.21
63700;BME280;49845;47.130;142.766;2024-02-15T10:11:11;100584.91;;;-9.75;87.08
63700;BME280;49845;47.130;142.766;2024-02-15T10:13:42;100580.97;;;-9.83;86.62
63700;BME280;49845;47.130;142.766;2024-02-15T10:16:18;100591.41;;;-9.90;86.54
63700;BME280;49845;47.130;142.766;2024-02-15T10:19:00;100568.13;;;-9.98;86.24
63700;BME280;49845;47.130;142.766;2024-02-15T10:21:38;100576.25;;;-9.90;86.27
63700;BME280;49845;47.130;142.766;2024-02-15T10:24:13;100578.06;;;-9.76;86.65
63700;BME280;49845;47.130;142.766;2024-02-15T10:26:43;100574.66;;;-9.65;86.72
63700;BME280;49845;47.130;142.766;2024-02-15T10:29:16;100564.53;;;-9.65;86.62
63700;BME280;49845;47.130;142.766;2024-02-15T10:31:56;100580.53;;;-9.52;86.71
63700;BME280;49845;47.130;142.766;2024-02-15T10:34:27;100579.22;;;-9.59;86.13
63700;BME280;49845;47.130;142.766;2024-02-15T10:37:11;100577.72;;;-9.69;85.61
63700;BME280;49845;47.130;142.766;2024-02-15T10:39:42;100579.22;;;-9.59;86.19
63700;BME280;49845;47.130;142.766;2024-02-15T10:42:13;100589.31;;;-9.47;86.92
63700;BME280;49845;47.130;142.766;2024-02-15T10:44:44;100591.03;;;-9.35;87.49
63700;BME280;49845;47.130;142.766;2024-02-15T10:47:18;100597.81;;;-9.22;87.98
63700;BME280;49845;47.130;142.766;2024-02-15T10:49:50;100592.53;;;-9.25;87.95
63700;BME280;49845;47.130;142.766;2024-02-15T10:52:21;100589.22;;;-9.24;87.57
63700;BME280;49845;47.130;142.766;2024-02-15T10:54:59;100587.03;;;-9.31;87.60
63700;BME280;49845;47.130;142.766;2024-02-15T10:57:32;100584.91;;;-9.38;87.70
63700;BME280;49845;47.130;142.766;2024-02-15T11:00:05;100586.75;;;-9.61;87.77
63700;BME280;49845;47.130;142.766;2024-02-15T11:02:46;100592.91;;;-9.69;88.51
63700;BME280;49845;47.130;142.766;2024-02-15T11:05:24;100580.25;;;-9.69;89.01
63700;BME280;49845;47.130;142.766;2024-02-15T11:07:55;100573.25;;;-9.73;89.45
63700;BME280;49845;47.130;142.766;2024-02-15T11:10:26;100564.53;;;-9.65;89.90
63700;BME280;49845;47.130;142.766;2024-02-15T11:12:57;100571.56;;;-9.61;90.06
63700;BME280;49845;47.130;142.766;2024-02-15T11:15:45;100563.38;;;-9.57;90.37
63700;BME280;49845;47.130;142.766;2024-02-15T11:18:46;100573.00;;;-9.39;90.35
63700;BME280;49845;47.130;142.766;2024-02-15T11:21:54;100561.91;;;-9.41;90.08
63700;BME280;49845;47.130;142.766;2024-02-15T11:24:26;100542.44;;;-9.42;90.74
63700;BME280;49845;47.130;142.766;2024-02-15T11:26:58;100546.16;;;-9.37;90.45
63700;BME280;49845;47.130;142.766;2024-02-15T11:29:50;100581.28;;;-9.17;90.56
63700;BME280;49845;47.130;142.766;2024-02-15T11:32:41;100571.34;;;-9.14;90.31
63700;BME280;49845;47.130;142.766;2024-02-15T11:35:18;100535.31;;;-9.23;90.80
63700;BME280;49845;47.130;142.766;2024-02-15T11:37:58;100573.75;;;-9.03;90.40
63700;BME280;49845;47.130;142.766;2024-02-15T11:41:00;100588.31;;;-9.13;89.94
63700;BME280;49845;47.130;142.766;2024-02-15T11:43:50;100578.38;;;-9.09;90.61
63700;BME280;49845;47.130;142.766;2024-02-15T11:46:28;100573.00;;;-9.39;89.88
63700;BME280;49845;47.130;142.766;2024-02-15T11:49:02;100591.13;;;-9.58;90.22
63700;BME280;49845;47.130;142.766;2024-02-15T11:51:36;100583.69;;;-9.80;90.77
63700;BME280;49845;47.130;142.766;2024-02-15T11:54:12;100585.66;;;-9.76;91.79
63700;BME280;49845;47.130;142.766;2024-02-15T11:56:52;100565.03;;;-9.94;91.84
63700;BME280;49845;47.130;142.766;2024-02-15T11:59:39;100562.41;;;-10.07;92.11
63700;BME280;49845;47.130;142.766;2024-02-15T12:02:22;100559.56;;;-10.12;92.25
63700;BME280;49845;47.130;142.766;2024-02-15T12:05:09;100556.53;;;-10.31;92.42
63700;BME280;49845;47.130;142.766;2024-02-15T12:07:59;100509.75;;;-10.73;92.88
63700;BME280;49845;47.130;142.766;2024-02-15T12:10:57;100547.97;;;-10.57;93.67
63700;BME280;49845;47.130;142.766;2024-02-15T12:13:50;100548.31;;;-10.64;94.02
63700;BME280;49845;47.130;142.766;2024-02-15T12:16:37;100536.13;;;-10.70;94.29
63700;BME280;49845;47.130;142.766;2024-02-15T12:19:24;100550.16;;;-10.73;94.10
63700;BME280;49845;47.130;142.766;2024-02-15T12:21:55;100541.94;;;-10.82;93.92
63700;BME280;49845;47.130;142.766;2024-02-15T12:24:30;100543.56;;;-10.95;93.53
63700;BME280;49845;47.130;142.766;2024-02-15T12:27:01;100544.16;;;-11.09;93.75
63700;BME280;49845;47.130;142.766;2024-02-15T12:29:32;100530.78;;;-11.20;94.07
63700;BME280;49845;47.130;142.766;2024-02-15T12:32:04;100550.53;;;-11.14;94.42
63700;BME280;49845;47.130;142.766;2024-02-15T12:34:34;100547.00;;;-11.16;94.33
63700;BME280;49845;47.130;142.766;2024-02-15T12:37:12;100552.75;;;-11.07;94.61
63700;BME280;49845;47.130;142.766;2024-02-15T12:39:44;100548.59;;;-10.95;94.64
63700;BME280;49845;47.130;142.766;2024-02-15T12:42:14;100549.94;;;-10.76;94.71
63700;BME280;49845;47.130;142.766;2024-02-15T12:44:45;100547.56;;;-10.63;94.48
63700;BME280;49845;47.130;142.766;2024-02-15T12:47:20;100559.59;;;-10.59;94.20
63700;BME280;49845;47.130;142.766;2024-02-15T12:49:53;100553.13;;;-10.44;93.52
63700;BME280;49845;47.130;142.766;2024-02-15T12:52:37;100558.75;;;-10.48;92.72
63700;BME280;49845;47.130;142.766;2024-02-15T12:55:13;100552.59;;;-10.63;91.46
63700;BME280;49845;47.130;142.766;2024-02-15T12:57:47;100558.03;;;-10.92;91.07
63700;BME280;49845;47.130;142.766;2024-02-15T13:00:20;100567.25;;;-10.93;91.72